Memorial Village's Hourly Summary for Saturday, July 7, 2018
Hour Temp
(f)
RH
(%)
Solar Rad.
(MJ/m2)
Rainfall
(in)
Wind
(mph)
7/7/2018 12:00 AM 73 93 0 0.06 0.01
7/7/2018 1:00 AM 74 97 0 0 0
7/7/2018 2:00 AM 74 98 0 0 0
7/7/2018 3:00 AM 74 98 0 0 0
7/7/2018 4:00 AM 74 98 0 0 0
7/7/2018 5:00 AM 74 98 0 0 0
7/7/2018 6:00 AM 74 98 0.02 0 0
7/7/2018 7:00 AM 75 98 0.16 0 0
7/7/2018 8:00 AM 77 83 0.44 0 0.01
7/7/2018 9:00 AM 83 64 0.86 0 0.05
7/7/2018 10:00 AM 87 60 1.95 0 0.63
7/7/2018 11:00 AM 89 51 2.92 0 0.45
7/7/2018 12:00 PM 91 49 3.24 0 1
7/7/2018 1:00 PM 91 50 2.67 0 1.02
7/7/2018 2:00 PM 89 48 1.7 0 0.93
7/7/2018 3:00 PM 87 53 2.03 0 0.48
7/7/2018 4:00 PM 90 49 1.44 0 0.87
7/7/2018 5:00 PM 82 59 0.34 0 0.35
7/7/2018 6:00 PM 82 67 0.24 0 0
7/7/2018 7:00 PM 82 69 0.13 0 0.02
7/7/2018 8:00 PM 81 73 0.01 0 0.13
7/7/2018 9:00 PM 80 77 0 0 0
7/7/2018 10:00 PM 79 80 0 0 0
7/7/2018 11:00 PM 78 84 0 0 0
Data Summary 80 74 18.15 0.06 0.25